sensor_id;sensor_type;location;lat;lon;timestamp;pressure;altitude;pressure_sealevel;temperature;humidity
55656;BME280;41530;52.382;5.270;2023-02-14T00:00:31;103726.66;;;15.51;51.35
55656;BME280;41530;52.382;5.270;2023-02-14T00:02:58;103735.34;;;15.54;51.38
55656;BME280;41530;52.382;5.270;2023-02-14T00:05:24;103742.44;;;15.55;51.40
55656;BME280;41530;52.382;5.270;2023-02-14T00:07:51;103735.50;;;15.51;51.36
55656;BME280;41530;52.382;5.270;2023-02-14T00:10:17;103736.41;;;15.50;51.20
55656;BME280;41530;52.382;5.270;2023-02-14T00:12:44;103740.72;;;15.53;51.43
55656;BME280;41530;52.382;5.270;2023-02-14T00:15:11;103737.34;;;15.49;51.15
55656;BME280;41530;52.382;5.270;2023-02-14T00:17:52;103736.34;;;15.52;51.21
55656;BME280;41530;52.382;5.270;2023-02-14T00:20:23;103739.94;;;15.51;51.24
55656;BME280;41530;52.382;5.270;2023-02-14T00:22:50;103726.09;;;15.44;51.20
55656;BME280;41530;52.382;5.270;2023-02-14T00:25:17;103737.34;;;15.49;51.19
55656;BME280;41530;52.382;5.270;2023-02-14T00:27:44;103725.94;;;15.47;51.03
55656;BME280;41530;52.382;5.270;2023-02-14T00:30:12;103729.50;;;15.46;51.26
55656;BME280;41530;52.382;5.270;2023-02-14T00:32:40;103723.56;;;15.41;51.16
55656;BME280;41530;52.382;5.270;2023-02-14T00:35:07;103734.06;;;15.44;50.99
55656;BME280;41530;52.382;5.270;2023-02-14T00:37:35;103730.66;;;15.41;51.10
55656;BME280;41530;52.382;5.270;2023-02-14T00:40:02;103719.19;;;15.40;51.01
55656;BME280;41530;52.382;5.270;2023-02-14T00:42:30;103724.50;;;15.40;51.00
55656;BME280;41530;52.382;5.270;2023-02-14T00:44:57;103721.84;;;15.40;51.24
55656;BME280;41530;52.382;5.270;2023-02-14T00:47:23;103720.97;;;15.40;50.87
55656;BME280;41530;52.382;5.270;2023-02-14T00:49:50;103706.84;;;15.39;50.99
55656;BME280;41530;52.382;5.270;2023-02-14T00:52:17;103710.50;;;15.37;51.10
55656;BME280;41530;52.382;5.270;2023-02-14T00:54:43;103717.47;;;15.39;50.93
55656;BME280;41530;52.382;5.270;2023-02-14T00:57:10;103706.00;;;15.39;51.02
55656;BME280;41530;52.382;5.270;2023-02-14T00:59:37;103706.06;;;15.37;51.02
55656;BME280;41530;52.382;5.270;2023-02-14T01:02:03;103701.75;;;15.34;50.93
55656;BME280;41530;52.382;5.270;2023-02-14T01:04:30;103703.53;;;15.34;50.89
55656;BME280;41530;52.382;5.270;2023-02-14T01:06:57;103693.91;;;15.31;50.91
55656;BME280;41530;52.382;5.270;2023-02-14T01:09:23;103697.44;;;15.32;50.93
55656;BME280;41530;52.382;5.270;2023-02-14T01:11:50;103689.69;;;15.27;50.80
55656;BME280;41530;52.382;5.270;2023-02-14T01:14:16;103690.50;;;15.29;50.89
55656;BME280;41530;52.382;5.270;2023-02-14T01:16:43;103687.97;;;15.26;50.84
55656;BME280;41530;52.382;5.270;2023-02-14T01:19:10;103690.56;;;15.28;51.03
55656;BME280;41530;52.382;5.270;2023-02-14T01:21:36;103687.97;;;15.26;50.84
55656;BME280;41530;52.382;5.270;2023-02-14T01:24:05;103694.94;;;15.29;50.89
55656;BME280;41530;52.382;5.270;2023-02-14T01:26:33;103702.03;;;15.28;50.53
55656;BME280;41530;52.382;5.270;2023-02-14T01:29:01;103695.00;;;15.27;50.69
55656;BME280;41530;52.382;5.270;2023-02-14T01:31:30;103695.00;;;15.27;50.64
55656;BME280;41530;52.382;5.270;2023-02-14T01:33:57;103694.19;;;15.25;50.78
55656;BME280;41530;52.382;5.270;2023-02-14T01:38:53;103690.81;;;15.22;50.47
55656;BME280;41530;52.382;5.270;2023-02-14T01:41:20;103686.31;;;15.24;50.75
55656;BME280;41530;52.382;5.270;2023-02-14T01:46:27;103700.56;;;15.21;50.61
55656;BME280;41530;52.382;5.270;2023-02-14T01:49:00;103690.16;;;15.17;50.49
55656;BME280;41530;52.382;5.270;2023-02-14T01:51:29;103689.38;;;15.15;50.76
55656;BME280;41530;52.382;5.270;2023-02-14T01:53:57;103697.97;;;15.20;50.76
55656;BME280;41530;52.382;5.270;2023-02-14T01:56:29;103698.19;;;15.15;50.41
55656;BME280;41530;52.382;5.270;2023-02-14T01:59:01;103692.09;;;15.13;50.51
55656;BME280;41530;52.382;5.270;2023-02-14T02:01:29;103695.53;;;15.15;50.51
55656;BME280;41530;52.382;5.270;2023-02-14T02:04:09;103697.31;;;15.15;50.47
55656;BME280;41530;52.382;5.270;2023-02-14T02:06:40;103685.00;;;15.14;50.45
55656;BME280;41530;52.382;5.270;2023-02-14T02:09:17;103691.22;;;15.13;50.15
55656;BME280;41530;52.382;5.270;2023-02-14T02:11:45;103683.59;;;15.05;50.38
55656;BME280;41530;52.382;5.270;2023-02-14T02:14:14;103690.44;;;15.11;50.39
55656;BME280;41530;52.382;5.270;2023-02-14T02:22:11;103688.81;;;15.07;50.43
55656;BME280;41530;52.382;5.270;2023-02-14T02:46:23;103680.53;;;14.94;49.97
55656;BME280;41530;52.382;5.270;2023-02-14T02:52:50;103592.66;;;14.42;49.94
55656;BME280;41530;52.382;5.270;2023-02-14T02:55:59;103681.47;;;14.93;49.77
55656;BME280;41530;52.382;5.270;2023-02-14T02:59:15;103674.38;;;14.93;49.91
55656;BME280;41530;52.382;5.270;2023-02-14T03:02:35;103673.50;;;14.93;49.73
55656;BME280;41530;52.382;5.270;2023-02-14T03:04:59;103591.91;;;14.39;49.74
55656;BME280;41530;52.382;5.270;2023-02-14T03:07:55;103579.97;;;14.28;49.84
55656;BME280;41530;52.382;5.270;2023-02-14T03:10:47;103644.44;;;14.71;50.02
55656;BME280;41530;52.382;5.270;2023-02-14T03:13:58;103673.72;;;14.88;49.73
55656;BME280;41530;52.382;5.270;2023-02-14T03:17:03;103602.28;;;14.45;49.86
55656;BME280;41530;52.382;5.270;2023-02-14T03:22:52;103637.59;;;14.66;49.89
55656;BME280;41530;52.382;5.270;2023-02-14T03:28:52;103580.66;;;14.34;49.75
55656;BME280;41530;52.382;5.270;2023-02-14T03:35:03;103562.56;;;14.23;49.43
55656;BME280;41530;52.382;5.270;2023-02-14T03:43:58;103564.41;;;14.21;49.53
55656;BME280;41530;52.382;5.270;2023-02-14T03:49:17;103617.06;;;14.50;49.75
55656;BME280;41530;52.382;5.270;2023-02-14T03:52:26;103580.66;;;14.34;49.26
55656;BME280;41530;52.382;5.270;2023-02-14T03:55:02;103561.84;;;14.19;49.52
55656;BME280;41530;52.382;5.270;2023-02-14T04:00:41;103562.88;;;14.15;49.43
55656;BME280;41530;52.382;5.270;2023-02-14T04:03:18;103570.63;;;14.20;49.52
55656;BME280;41530;52.382;5.270;2023-02-14T04:06:29;103556.13;;;14.08;49.47
55656;BME280;41530;52.382;5.270;2023-02-14T04:09:03;103601.78;;;14.35;49.40
55656;BME280;41530;52.382;5.270;2023-02-14T04:11:44;103585.31;;;14.27;49.62
55656;BME280;41530;52.382;5.270;2023-02-14T04:14:20;103573.53;;;14.14;49.51
55656;BME280;41530;52.382;5.270;2023-02-14T04:17:03;103553.59;;;14.05;49.52
55656;BME280;41530;52.382;5.270;2023-02-14T04:19:57;103588.84;;;14.27;49.47
55656;BME280;41530;52.382;5.270;2023-02-14T04:22:36;103558.72;;;14.10;49.56
55656;BME280;41530;52.382;5.270;2023-02-14T04:25:11;103552.66;;;14.06;49.16
55656;BME280;41530;52.382;5.270;2023-02-14T04:27:51;103564.88;;;14.10;49.46
55656;BME280;41530;52.382;5.270;2023-02-14T04:30:37;103556.94;;;14.10;49.31
55656;BME280;41530;52.382;5.270;2023-02-14T04:33:22;103545.66;;;14.05;49.63
55656;BME280;41530;52.382;5.270;2023-02-14T04:35:59;103566.59;;;14.11;49.28
55656;BME280;41530;52.382;5.270;2023-02-14T04:38:37;103563.38;;;14.03;49.35
55656;BME280;41530;52.382;5.270;2023-02-14T04:41:16;103540.59;;;13.99;49.26
55656;BME280;41530;52.382;5.270;2023-02-14T04:43:55;103547.50;;;14.03;49.21
55656;BME280;41530;52.382;5.270;2023-02-14T04:46:30;103601.44;;;14.22;49.25
55656;BME280;41530;52.382;5.270;2023-02-14T04:49:08;103597.00;;;14.23;49.18
55656;BME280;41530;52.382;5.270;2023-02-14T04:51:42;103615.94;;;14.34;49.46
55656;BME280;41530;52.382;5.270;2023-02-14T04:54:21;103543.34;;;13.98;49.19
55656;BME280;41530;52.382;5.270;2023-02-14T04:57:00;103548.47;;;14.01;48.99
55656;BME280;41530;52.382;5.270;2023-02-14T04:59:41;103583.25;;;14.13;49.48
55656;BME280;41530;52.382;5.270;2023-02-14T05:02:16;103557.63;;;13.94;49.56
55656;BME280;41530;52.382;5.270;2023-02-14T05:04:56;103555.78;;;13.96;49.05
55656;BME280;41530;52.382;5.270;2023-02-14T05:07:29;103579.19;;;14.05;49.36
55656;BME280;41530;52.382;5.270;2023-02-14T05:10:08;103548.94;;;13.90;49.02
55656;BME280;41530;52.382;5.270;2023-02-14T05:12:41;103540.19;;;13.88;49.12
55656;BME280;41530;52.382;5.270;2023-02-14T05:15:29;103548.06;;;13.89;49.03
55656;BME280;41530;52.382;5.270;2023-02-14T05:18:04;103560.19;;;13.95;49.25
55656;BME280;41530;52.382;5.270;2023-02-14T05:20:43;103577.47;;;14.04;49.03
55656;BME280;41530;52.382;5.270;2023-02-14T05:23:18;103559.41;;;13.93;48.93
55656;BME280;41530;52.382;5.270;2023-02-14T05:25:57;103563.03;;;13.90;48.95
55656;BME280;41530;52.382;5.270;2023-02-14T05:28:32;103552.56;;;13.87;49.06
55656;BME280;41530;52.382;5.270;2023-02-14T05:31:04;103561.28;;;13.89;49.23
55656;BME280;41530;52.382;5.270;2023-02-14T05:33:42;103639.72;;;14.36;49.10
55656;BME280;41530;52.382;5.270;2023-02-14T05:36:16;103610.41;;;14.18;49.07
55656;BME280;41530;52.382;5.270;2023-02-14T05:38:50;103605.22;;;14.15;49.14
55656;BME280;41530;52.382;5.270;2023-02-14T05:41:27;103549.09;;;13.85;48.96
55656;BME280;41530;52.382;5.270;2023-02-14T05:44:05;103547.53;;;13.81;49.11
55656;BME280;41530;52.382;5.270;2023-02-14T05:46:35;103580.06;;;14.05;49.11
55656;BME280;41530;52.382;5.270;2023-02-14T05:49:30;103548.25;;;13.85;48.97
55656;BME280;41530;52.382;5.270;2023-02-14T05:52:13;103537.91;;;13.79;48.87
55656;BME280;41530;52.382;5.270;2023-02-14T05:54:54;103540.50;;;13.80;49.13
55656;BME280;41530;52.382;5.270;2023-02-14T05:57:23;103546.59;;;13.82;48.95
55656;BME280;41530;52.382;5.270;2023-02-14T05:59:57;103586.91;;;14.11;48.94
55656;BME280;41530;52.382;5.270;2023-02-14T06:02:29;103538.72;;;13.81;49.02
55656;BME280;41530;52.382;5.270;2023-02-14T06:05:01;103539.69;;;13.78;49.16
55656;BME280;41530;52.382;5.270;2023-02-14T06:07:43;103546.66;;;13.81;48.88
55656;BME280;41530;52.382;5.270;2023-02-14T06:10:27;103551.03;;;13.82;49.32
55656;BME280;41530;52.382;5.270;2023-02-14T06:12:58;103544.81;;;13.83;49.08
55656;BME280;41530;52.382;5.270;2023-02-14T06:15:58;103538.09;;;13.74;48.61
55656;BME280;41530;52.382;5.270;2023-02-14T06:18:45;103541.53;;;13.76;48.84
55656;BME280;41530;52.382;5.270;2023-02-14T06:21:27;103604.31;;;14.16;48.82
55656;BME280;41530;52.382;5.270;2023-02-14T06:23:56;103552.81;;;13.81;49.23
55656;BME280;41530;52.382;5.270;2023-02-14T06:29:39;103549.25;;;13.82;49.13
55656;BME280;41530;52.382;5.270;2023-02-14T06:32:44;103573.50;;;13.94;48.83
55656;BME280;41530;52.382;5.270;2023-02-14T06:35:41;103589.72;;;14.06;48.79
55656;BME280;41530;52.382;5.270;2023-02-14T06:38:33;103539.66;;;13.80;48.71
55656;BME280;41530;52.382;5.270;2023-02-14T06:41:11;103597.34;;;14.14;49.04
55656;BME280;41530;52.382;5.270;2023-02-14T06:43:45;103542.03;;;13.86;48.75
55656;BME280;41530;52.382;5.270;2023-02-14T06:46:34;103547.25;;;13.87;48.60
55656;BME280;41530;52.382;5.270;2023-02-14T06:49:33;103547.19;;;13.89;48.85
55656;BME280;41530;52.382;5.270;2023-02-14T06:52:19;103580.59;;;14.13;48.95
55656;BME280;41530;52.382;5.270;2023-02-14T06:55:05;103637.78;;;14.39;49.07
55656;BME280;41530;52.382;5.270;2023-02-14T06:57:54;103542.03;;;13.86;49.10
55656;BME280;41530;52.382;5.270;2023-02-14T07:00:48;103631.63;;;14.39;48.79
55656;BME280;41530;52.382;5.270;2023-02-14T07:03:29;103536.88;;;13.83;48.96
55656;BME280;41530;52.382;5.270;2023-02-14T07:06:07;103544.59;;;13.87;49.34
55656;BME280;41530;52.382;5.270;2023-02-14T07:08:42;103540.28;;;13.85;49.10
55656;BME280;41530;52.382;5.270;2023-02-14T07:11:35;103602.28;;;14.23;49.08
55656;BME280;41530;52.382;5.270;2023-02-14T07:14:16;103591.13;;;14.15;49.25
55656;BME280;41530;52.382;5.270;2023-02-14T07:16:55;103551.63;;;13.88;49.28
55656;BME280;41530;52.382;5.270;2023-02-14T07:19:41;103577.25;;;14.10;49.23
55656;BME280;41530;52.382;5.270;2023-02-14T07:22:11;103530.91;;;13.78;49.32
55656;BME280;41530;52.382;5.270;2023-02-14T07:25:05;103595.50;;;14.16;49.10
55656;BME280;41530;52.382;5.270;2023-02-14T07:27:58;103577.41;;;14.05;49.08
55656;BME280;41530;52.382;5.270;2023-02-14T07:30:42;103536.94;;;13.81;49.11
55656;BME280;41530;52.382;5.270;2023-02-14T07:33:29;103542.13;;;13.84;49.39
55656;BME280;41530;52.382;5.270;2023-02-14T07:36:20;103542.94;;;13.85;49.42
55656;BME280;41530;52.382;5.270;2023-02-14T07:39:04;103565.09;;;14.04;49.32
55656;BME280;41530;52.382;5.270;2023-02-14T07:45:19;103618.59;;;14.34;49.70
55656;BME280;41530;52.382;5.270;2023-02-14T07:48:04;103553.84;;;13.99;49.28
55656;BME280;41530;52.382;5.270;2023-02-14T07:50:55;103535.31;;;13.99;49.41
55656;BME280;41530;52.382;5.270;2023-02-14T07:53:36;103538.56;;;14.06;49.58
55656;BME280;41530;52.382;5.270;2023-02-14T07:56:45;103539.63;;;14.02;49.21
55656;BME280;41530;52.382;5.270;2023-02-14T08:00:01;103541.16;;;14.07;49.55
55656;BME280;41530;52.382;5.270;2023-02-14T08:06:02;103551.19;;;14.21;49.05
55656;BME280;41530;52.382;5.270;2023-02-14T08:12:08;103555.22;;;14.30;49.00
55656;BME280;41530;52.382;5.270;2023-02-14T08:15:10;103542.78;;;14.32;49.01
55656;BME280;41530;52.382;5.270;2023-02-14T08:18:09;103576.25;;;14.54;48.91
55656;BME280;41530;52.382;5.270;2023-02-14T08:21:01;103538.03;;;14.40;48.82
55656;BME280;41530;52.382;5.270;2023-02-14T08:23:43;103556.19;;;14.49;48.66
55656;BME280;41530;52.382;5.270;2023-02-14T08:27:04;103636.03;;;15.02;48.54
55656;BME280;41530;52.382;5.270;2023-02-14T08:29:48;103601.56;;;14.82;49.16
55656;BME280;41530;52.382;5.270;2023-02-14T08:32:59;103545.38;;;14.53;48.64
55656;BME280;41530;52.382;5.270;2023-02-14T08:35:46;103554.75;;;14.62;48.82
55656;BME280;41530;52.382;5.270;2023-02-14T08:38:36;103561.41;;;14.71;48.50
55656;BME280;41530;52.382;5.270;2023-02-14T08:41:31;103545.81;;;14.65;48.52
55656;BME280;41530;52.382;5.270;2023-02-14T08:44:33;103546.44;;;14.70;48.33
55656;BME280;41530;52.382;5.270;2023-02-14T08:47:29;103544.53;;;14.73;48.23
55656;BME280;41530;52.382;5.270;2023-02-14T08:50:38;103541.75;;;14.76;48.37
55656;BME280;41530;52.382;5.270;2023-02-14T08:53:36;103540.59;;;14.82;48.51
55656;BME280;41530;52.382;5.270;2023-02-14T08:56:21;103557.09;;;14.88;48.44
55656;BME280;41530;52.382;5.270;2023-02-14T08:59:04;103555.88;;;14.95;48.41
55656;BME280;41530;52.382;5.270;2023-02-14T09:01:52;103639.91;;;15.53;48.02
55656;BME280;41530;52.382;5.270;2023-02-14T09:04:44;103545.00;;;15.02;48.08
55656;BME280;41530;52.382;5.270;2023-02-14T09:07:30;103549.09;;;15.09;48.17
55656;BME280;41530;52.382;5.270;2023-02-14T09:10:19;103550.63;;;15.14;48.06
55656;BME280;41530;52.382;5.270;2023-02-14T09:13:22;103636.63;;;15.66;47.96
55656;BME280;41530;52.382;5.270;2023-02-14T09:20:31;103593.00;;;15.53;47.92
55656;BME280;41530;52.382;5.270;2023-02-14T09:24:06;103534.28;;;15.23;47.55
55656;BME280;41530;52.382;5.270;2023-02-14T09:37:44;103528.03;;;15.24;47.67
55656;BME280;41530;52.382;5.270;2023-02-14T09:41:06;103621.72;;;15.83;47.95
55656;BME280;41530;52.382;5.270;2023-02-14T09:54:08;103593.53;;;15.61;48.00
55656;BME280;41530;52.382;5.270;2023-02-14T10:00:28;103624.44;;;15.81;47.69
55656;BME280;41530;52.382;5.270;2023-02-14T10:03:40;103623.56;;;15.81;47.77
55656;BME280;41530;52.382;5.270;2023-02-14T10:07:01;103627.09;;;15.81;47.94
55656;BME280;41530;52.382;5.270;2023-02-14T10:21:03;103530.63;;;15.26;48.19
55656;BME280;41530;52.382;5.270;2023-02-14T10:54:04;103544.31;;;15.36;48.79
55656;BME280;41530;52.382;5.270;2023-02-14T11:01:28;103600.22;;;15.70;48.78
55656;BME280;41530;52.382;5.270;2023-02-14T11:04:35;103594.03;;;15.70;48.86
55656;BME280;41530;52.382;5.270;2023-02-14T11:19:06;103593.25;;;15.67;49.63
55656;BME280;41530;52.382;5.270;2023-02-14T11:26:36;103507.88;;;15.20;49.44
55656;BME280;41530;52.382;5.270;2023-02-14T11:37:51;103479.03;;;15.14;50.16
55656;BME280;41530;52.382;5.270;2023-02-14T11:41:15;103461.84;;;15.04;50.33
55656;BME280;41530;52.382;5.270;2023-02-14T11:44:34;103565.59;;;15.72;50.36
55656;BME280;41530;52.382;5.270;2023-02-14T11:51:35;103451.66;;;15.14;51.18
55656;BME280;41530;52.382;5.270;2023-02-14T12:12:36;103429.97;;;15.23;51.79
55656;BME280;41530;52.382;5.270;2023-02-14T12:48:02;103481.69;;;15.86;51.41
55656;BME280;41530;52.382;5.270;2023-02-14T13:14:56;103437.84;;;15.96;51.82
55656;BME280;41530;52.382;5.270;2023-02-14T13:21:59;103435.88;;;16.00;51.67
55656;BME280;41530;52.382;5.270;2023-02-14T13:24:49;103329.06;;;15.43;51.53
55656;BME280;41530;52.382;5.270;2023-02-14T13:27:53;103333.59;;;15.41;51.50
55656;BME280;41530;52.382;5.270;2023-02-14T13:31:02;103327.09;;;15.47;51.94
55656;BME280;41530;52.382;5.270;2023-02-14T13:37:59;103329.53;;;15.51;51.48
55656;BME280;41530;52.382;5.270;2023-02-14T13:44:07;103412.44;;;16.08;51.92
55656;BME280;41530;52.382;5.270;2023-02-14T13:47:23;103348.75;;;15.74;51.69
55656;BME280;41530;52.382;5.270;2023-02-14T13:50:30;103306.44;;;15.53;51.68
55656;BME280;41530;52.382;5.270;2023-02-14T13:56:37;103299.75;;;15.63;51.46
55656;BME280;41530;52.382;5.270;2023-02-14T14:05:48;103389.00;;;16.16;51.76
55656;BME280;41530;52.382;5.270;2023-02-14T14:08:56;103299.75;;;15.63;51.60
55656;BME280;41530;52.382;5.270;2023-02-14T14:15:17;103290.22;;;15.59;51.57
55656;BME280;41530;52.382;5.270;2023-02-14T14:21:12;103298.97;;;15.61;51.24
55656;BME280;41530;52.382;5.270;2023-02-14T14:30:38;103289.75;;;15.68;51.83
55656;BME280;41530;52.382;5.270;2023-02-14T14:33:37;103363.22;;;16.18;51.65
55656;BME280;41530;52.382;5.270;2023-02-14T14:36:28;103308.06;;;15.90;51.33
55656;BME280;41530;52.382;5.270;2023-02-14T14:42:49;103364.34;;;16.30;51.44
55656;BME280;41530;52.382;5.270;2023-02-14T14:52:05;103364.28;;;16.31;51.44
55656;BME280;41530;52.382;5.270;2023-02-14T14:55:41;103280.38;;;15.79;51.51
55656;BME280;41530;52.382;5.270;2023-02-14T14:58:40;103290.63;;;15.85;51.53
55656;BME280;41530;52.382;5.270;2023-02-14T15:01:45;103367.56;;;16.36;51.65
55656;BME280;41530;52.382;5.270;2023-02-14T15:15:12;103339.00;;;16.24;51.29
55656;BME280;41530;52.382;5.270;2023-02-14T15:17:57;103269.41;;;15.85;51.28
55656;BME280;41530;52.382;5.270;2023-02-14T15:21:10;103271.03;;;15.87;51.29
55656;BME280;41530;52.382;5.270;2023-02-14T15:24:03;103274.41;;;15.91;51.27
55656;BME280;41530;52.382;5.270;2023-02-14T15:26:46;103281.19;;;15.96;51.17
55656;BME280;41530;52.382;5.270;2023-02-14T15:29:56;103277.50;;;15.99;51.33
55656;BME280;41530;52.382;5.270;2023-02-14T15:36:05;103363.94;;;16.53;51.25
55656;BME280;41530;52.382;5.270;2023-02-14T15:38:39;103354.19;;;16.54;51.17
55656;BME280;41530;52.382;5.270;2023-02-14T15:41:07;103360.34;;;16.54;51.29
55656;BME280;41530;52.382;5.270;2023-02-14T15:43:37;103351.44;;;16.55;51.29
55656;BME280;41530;52.382;5.270;2023-02-14T15:46:18;103358.47;;;16.56;51.36
55656;BME280;41530;52.382;5.270;2023-02-14T15:48:57;103348.69;;;16.57;51.28
55656;BME280;41530;52.382;5.270;2023-02-14T15:51:28;103352.13;;;16.59;51.37
55656;BME280;41530;52.382;5.270;2023-02-14T15:54:01;103347.75;;;16.58;51.18
55656;BME280;41530;52.382;5.270;2023-02-14T15:56:34;103343.31;;;16.58;51.36
55656;BME280;41530;52.382;5.270;2023-02-14T15:59:11;103351.19;;;16.60;51.21
55656;BME280;41530;52.382;5.270;2023-02-14T16:01:50;103338.00;;;16.58;51.37
55656;BME280;41530;52.382;5.270;2023-02-14T16:04:25;103337.81;;;16.61;51.15
55656;BME280;41530;52.382;5.270;2023-02-14T16:09:50;103332.59;;;16.60;51.40
55656;BME280;41530;52.382;5.270;2023-02-14T16:12:38;103340.50;;;16.61;51.20
55656;BME280;41530;52.382;5.270;2023-02-14T16:17:41;103339.59;;;16.62;51.27
55656;BME280;41530;52.382;5.270;2023-02-14T16:23:32;103339.59;;;16.62;50.85
55656;BME280;41530;52.382;5.270;2023-02-14T16:26:04;103339.59;;;16.62;51.17
55656;BME280;41530;52.382;5.270;2023-02-14T16:28:32;103341.28;;;16.63;51.24
55656;BME280;41530;52.382;5.270;2023-02-14T16:31:00;103336.84;;;16.64;51.22
55656;BME280;41530;52.382;5.270;2023-02-14T16:33:38;103344.81;;;16.64;50.92
55656;BME280;41530;52.382;5.270;2023-02-14T16:36:25;103339.50;;;16.64;50.92
55656;BME280;41530;52.382;5.270;2023-02-14T16:38:53;103328.00;;;16.63;51.17
55656;BME280;41530;52.382;5.270;2023-02-14T16:41:22;103336.72;;;16.65;51.26
55656;BME280;41530;52.382;5.270;2023-02-14T16:43:50;103337.69;;;16.64;51.15
55656;BME280;41530;52.382;5.270;2023-02-14T16:46:19;103340.25;;;16.66;51.00
55656;BME280;41530;52.382;5.270;2023-02-14T16:48:47;103335.97;;;16.63;50.87
55656;BME280;41530;52.382;5.270;2023-02-14T16:51:20;103332.28;;;16.66;50.84
55656;BME280;41530;52.382;5.270;2023-02-14T16:53:47;103330.56;;;16.65;51.04
55656;BME280;41530;52.382;5.270;2023-02-14T16:56:31;103337.59;;;16.66;50.61
55656;BME280;41530;52.382;5.270;2023-02-14T16:58:58;103343.75;;;16.66;51.05
55656;BME280;41530;52.382;5.270;2023-02-14T17:01:25;103339.38;;;16.65;51.02
55656;BME280;41530;52.382;5.270;2023-02-14T17:03:52;103350.00;;;16.65;51.39
55656;BME280;41530;52.382;5.270;2023-02-14T17:06:21;103343.84;;;16.65;51.18
55656;BME280;41530;52.382;5.270;2023-02-14T17:08:49;103356.19;;;16.66;51.08
55656;BME280;41530;52.382;5.270;2023-02-14T17:11:18;103349.16;;;16.65;51.71
55656;BME280;41530;52.382;5.270;2023-02-14T17:13:45;103353.53;;;16.66;51.39
55656;BME280;41530;52.382;5.270;2023-02-14T17:16:13;103354.47;;;16.65;51.38
55656;BME280;41530;52.382;5.270;2023-02-14T17:18:45;103355.34;;;16.65;51.05
55656;BME280;41530;52.382;5.270;2023-02-14T17:21:13;103352.59;;;16.67;50.96
55656;BME280;41530;52.382;5.270;2023-02-14T17:23:41;103350.88;;;16.66;51.23
55656;BME280;41530;52.382;5.270;2023-02-14T17:26:07;103358.75;;;16.67;51.11
55656;BME280;41530;52.382;5.270;2023-02-14T17:28:34;103358.75;;;16.67;50.86
55656;BME280;41530;52.382;5.270;2023-02-14T17:31:01;103352.59;;;16.67;51.20
55656;BME280;41530;52.382;5.270;2023-02-14T17:33:31;103350.00;;;16.65;51.23
55656;BME280;41530;52.382;5.270;2023-02-14T17:36:05;103359.78;;;16.65;50.77
55656;BME280;41530;52.382;5.270;2023-02-14T17:38:33;103352.69;;;16.65;51.25
55656;BME280;41530;52.382;5.270;2023-02-14T17:41:19;103357.25;;;16.63;51.05
55656;BME280;41530;52.382;5.270;2023-02-14T17:43:47;103346.75;;;16.60;51.20
55656;BME280;41530;52.382;5.270;2023-02-14T17:46:14;103350.22;;;16.62;51.29
55656;BME280;41530;52.382;5.270;2023-02-14T17:48:44;103357.28;;;16.62;51.14
55656;BME280;41530;52.382;5.270;2023-02-14T17:51:12;103354.63;;;16.62;51.13
55656;BME280;41530;52.382;5.270;2023-02-14T17:53:39;103349.47;;;16.59;51.11
55656;BME280;41530;52.382;5.270;2023-02-14T17:56:17;103352.06;;;16.60;50.84
55656;BME280;41530;52.382;5.270;2023-02-14T17:58:44;103360.13;;;16.59;50.82
55656;BME280;41530;52.382;5.270;2023-02-14T18:01:15;103359.25;;;16.58;50.89
55656;BME280;41530;52.382;5.270;2023-02-14T18:03:43;103353.06;;;16.58;50.92
55656;BME280;41530;52.382;5.270;2023-02-14T18:06:10;103350.50;;;16.56;51.01
55656;BME280;41530;52.382;5.270;2023-02-14T18:08:39;103346.91;;;16.57;50.95
55656;BME280;41530;52.382;5.270;2023-02-14T18:11:08;103353.94;;;16.58;51.11
55656;BME280;41530;52.382;5.270;2023-02-14T18:13:36;103352.22;;;16.57;51.35
55656;BME280;41530;52.382;5.270;2023-02-14T18:16:04;103349.56;;;16.57;51.24
55656;BME280;41530;52.382;5.270;2023-02-14T18:18:31;103346.03;;;16.57;50.96
55656;BME280;41530;52.382;5.270;2023-02-14T18:21:01;103350.50;;;16.56;50.77
55656;BME280;41530;52.382;5.270;2023-02-14T18:23:29;103347.00;;;16.56;51.00
55656;BME280;41530;52.382;5.270;2023-02-14T18:26:02;103339.94;;;16.55;51.02
55656;BME280;41530;52.382;5.270;2023-02-14T18:28:30;103338.22;;;16.54;51.03
55656;BME280;41530;52.382;5.270;2023-02-14T18:31:04;103335.50;;;16.55;51.04
55656;BME280;41530;52.382;5.270;2023-02-14T18:33:31;103334.72;;;16.53;51.24
55656;BME280;41530;52.382;5.270;2023-02-14T18:36:03;103334.72;;;16.53;50.78
55656;BME280;41530;52.382;5.270;2023-02-14T18:38:30;103326.75;;;16.53;51.35
55656;BME280;41530;52.382;5.270;2023-02-14T18:41:01;103320.56;;;16.53;51.49
55656;BME280;41530;52.382;5.270;2023-02-14T18:43:28;103320.50;;;16.54;51.86
55656;BME280;41530;52.382;5.270;2023-02-14T18:45:55;103317.06;;;16.52;51.32
55656;BME280;41530;52.382;5.270;2023-02-14T18:48:27;103311.84;;;16.51;51.74
55656;BME280;41530;52.382;5.270;2023-02-14T18:50:53;103310.03;;;16.51;51.27
55656;BME280;41530;52.382;5.270;2023-02-14T18:53:20;103318.00;;;16.51;51.47
55656;BME280;41530;52.382;5.270;2023-02-14T18:55:46;103312.78;;;16.50;51.86
55656;BME280;41530;52.382;5.270;2023-02-14T18:58:13;103323.41;;;16.50;51.65
55656;BME280;41530;52.382;5.270;2023-02-14T19:00:39;103312.78;;;16.50;51.61
55656;BME280;41530;52.382;5.270;2023-02-14T19:03:06;103313.66;;;16.50;51.62
55656;BME280;41530;52.382;5.270;2023-02-14T19:05:32;103306.78;;;16.46;51.71
55656;BME280;41530;52.382;5.270;2023-02-14T19:08:02;103312.03;;;16.48;51.99
55656;BME280;41530;52.382;5.270;2023-02-14T19:10:29;103307.66;;;16.47;52.19
55656;BME280;41530;52.382;5.270;2023-02-14T19:12:55;103313.81;;;16.47;51.64
55656;BME280;41530;52.382;5.270;2023-02-14T19:15:22;103310.47;;;16.44;51.60